Terminal Aerodrome Forecast
Issued by NWS

Home | Current Version | Previous Version | Graphics & Text | Print | Product List | Glossary On
Versions: 1 2 3 4 5 6 7 8 9 10 11 12 13 14 15 16 17 18 19 20 21 22 23 24 25
000
FTUS43 KABR 140900 AAA
TAFPIR
TAF AMD
KPIR 140930Z 1410/1506 33007KT P6SM SKC
     FM141200 33007KT P6SM BKN060
     FM141500 32013KT P6SM VCSH BKN035
     FM142000 33015KT P6SM BKN050
     FM150300 06004KT P6SM SKC=

USA.gov is the U.S. government's official web portal to all federal, state and local government web resources and services.